createdAt,value
2018-12-26T00:01:51.282Z,22.53
2018-12-26T00:04:18.790Z,21.93
2018-12-26T00:06:46.286Z,22.00
2018-12-26T00:09:16.573Z,21.20
2018-12-26T00:11:44.088Z,21.23
2018-12-26T00:14:11.596Z,23.13
2018-12-26T00:16:39.050Z,21.83
2018-12-26T00:19:07.778Z,21.03
2018-12-26T00:21:35.379Z,21.33
2018-12-26T00:24:02.933Z,20.93
2018-12-26T00:26:30.621Z,22.47
2018-12-26T00:28:58.070Z,21.30
2018-12-26T00:31:25.491Z,21.07
2018-12-26T00:33:53.005Z,21.33
2018-12-26T00:36:20.497Z,20.60
2018-12-26T00:38:47.898Z,20.03
2018-12-26T00:41:15.529Z,20.87
2018-12-26T00:43:45.956Z,20.93
2018-12-26T00:46:13.434Z,20.50
2018-12-26T00:48:42.570Z,20.23
2018-12-26T00:51:10.389Z,19.87
2018-12-26T00:53:39.083Z,19.67
2018-12-26T00:56:10.411Z,21.07
2018-12-26T00:58:38.228Z,20.53
2018-12-26T01:01:06.873Z,20.17
2018-12-26T01:03:34.334Z,20.83
2018-12-26T01:06:01.761Z,19.83
2018-12-26T01:08:29.248Z,20.47
2018-12-26T01:10:56.842Z,18.87
2018-12-26T01:13:24.312Z,18.03
2018-12-26T01:15:51.664Z,17.70
2018-12-26T01:18:19.078Z,18.13
2018-12-26T01:20:49.777Z,19.63
2018-12-26T01:23:17.275Z,20.37
2018-12-26T01:25:44.796Z,18.03
2018-12-26T01:28:12.698Z,20.27
2018-12-26T01:30:40.217Z,20.83
2018-12-26T01:33:07.763Z,20.60
2018-12-26T01:35:35.218Z,20.23
2018-12-26T01:38:02.619Z,21.67
2018-12-26T01:40:30.187Z,25.13
2018-12-26T01:43:00.796Z,23.17
2018-12-26T01:45:28.390Z,25.10
2018-12-26T01:47:55.835Z,23.93
2018-12-26T01:50:23.393Z,23.40
2018-12-26T01:52:52.504Z,20.57
2018-12-26T01:55:20.063Z,21.03
2018-12-26T01:57:47.509Z,20.10
2018-12-26T02:00:17.947Z,19.93
2018-12-26T02:02:45.510Z,20.27
2018-12-26T02:05:12.897Z,18.63
2018-12-26T02:07:40.394Z,17.97
2018-12-26T02:10:07.856Z,18.53
2018-12-26T02:12:35.349Z,18.53
2018-12-26T02:15:05.499Z,17.80
2018-12-26T02:17:33.085Z,17.10
2018-12-26T02:20:00.444Z,16.87
2018-12-26T02:22:27.901Z,16.70
2018-12-26T02:24:56.555Z,16.33
2018-12-26T02:27:23.943Z,17.47
2018-12-26T02:29:51.427Z,17.00
2018-12-26T02:32:20.566Z,17.80
2018-12-26T02:34:47.998Z,16.70
2018-12-26T02:37:15.440Z,16.23
2018-12-26T02:39:42.973Z,16.10
2018-12-26T02:42:10.358Z,14.07
2018-12-26T02:44:37.830Z,14.43
2018-12-26T02:47:08.416Z,15.63
2018-12-26T02:49:35.806Z,13.37
2018-12-26T02:52:04.349Z,13.93
2018-12-26T02:54:31.741Z,14.20
2018-12-26T02:56:59.676Z,13.60
2018-12-26T02:59:27.099Z,14.27
2018-12-26T03:01:54.623Z,14.37
2018-12-26T03:04:22.029Z,13.20
2018-12-26T03:06:49.538Z,13.67
2018-12-26T03:09:17.155Z,15.07
2018-12-26T03:11:44.508Z,13.43
2018-12-26T03:14:12.000Z,14.00
2018-12-26T03:16:39.446Z,14.50
2018-12-26T03:19:06.864Z,14.10
2018-12-26T03:21:34.463Z,14.43
2018-12-26T03:24:02.067Z,15.03
2018-12-26T03:26:29.720Z,14.87
2018-12-26T03:28:57.229Z,15.50
2018-12-26T03:31:24.794Z,14.53
2018-12-26T03:33:52.241Z,15.57
2018-12-26T03:36:19.735Z,14.53
2018-12-26T03:38:47.293Z,13.77
2018-12-26T03:41:14.725Z,15.47
2018-12-26T03:43:42.122Z,14.47
2018-12-26T03:46:09.669Z,14.17
2018-12-26T03:48:37.185Z,14.53
2018-12-26T03:51:04.743Z,14.97
2018-12-26T03:53:32.415Z,15.17
2018-12-26T03:55:59.948Z,14.73
2018-12-26T03:58:27.759Z,15.73
2018-12-26T04:00:55.494Z,15.13
2018-12-26T04:03:23.286Z,13.77
2018-12-26T04:05:50.872Z,12.90
2018-12-26T04:08:18.477Z,12.80
2018-12-26T04:10:46.041Z,11.57
2018-12-26T04:13:13.599Z,12.63
2018-12-26T04:15:41.161Z,11.53
2018-12-26T04:18:08.656Z,11.70
2018-12-26T04:20:36.127Z,10.23
2018-12-26T04:23:03.684Z,11.80
2018-12-26T04:25:31.144Z,11.77
2018-12-26T04:27:58.642Z,11.50
2018-12-26T04:30:26.419Z,9.90
2018-12-26T04:32:53.951Z,10.27
2018-12-26T04:35:21.387Z,9.10
2018-12-26T04:37:48.973Z,8.73
2018-12-26T04:40:18.080Z,8.97
2018-12-26T04:42:45.593Z,8.90
2018-12-26T04:45:13.146Z,9.40
2018-12-26T04:47:40.524Z,8.90
2018-12-26T04:50:07.944Z,9.10
2018-12-26T04:52:35.475Z,8.27
2018-12-26T04:55:03.029Z,8.30
2018-12-26T04:57:30.552Z,8.87
2018-12-26T04:59:58.088Z,10.20
2018-12-26T05:02:25.594Z,10.77
2018-12-26T05:04:53.292Z,10.73
2018-12-26T05:07:20.944Z,11.27
2018-12-26T05:09:48.606Z,12.20
2018-12-26T05:12:18.520Z,11.97
2018-12-26T05:14:46.267Z,11.77
2018-12-26T05:17:13.843Z,12.50
2018-12-26T05:19:41.325Z,13.07
2018-12-26T05:22:11.610Z,13.03
2018-12-26T05:24:39.066Z,13.47
2018-12-26T05:27:06.640Z,14.27
2018-12-26T05:29:34.278Z,13.83
2018-12-26T05:32:01.906Z,12.90
2018-12-26T05:34:31.282Z,11.67
2018-12-26T05:36:58.845Z,11.50
2018-12-26T05:39:28.009Z,11.57
2018-12-26T05:41:57.853Z,11.80
2018-12-26T05:44:25.428Z,11.77
2018-12-26T05:46:52.970Z,11.80
2018-12-26T05:49:20.498Z,11.13
2018-12-26T05:51:50.957Z,11.37
2018-12-26T05:54:20.081Z,10.57
2018-12-26T05:56:47.820Z,10.70
2018-12-26T05:59:15.933Z,11.30
2018-12-26T06:01:43.392Z,10.70
2018-12-26T06:04:11.024Z,11.37
2018-12-26T06:06:38.982Z,11.90
2018-12-26T06:09:06.739Z,11.13
2018-12-26T06:11:34.733Z,11.60
2018-12-26T06:14:02.500Z,11.77
2018-12-26T06:16:30.048Z,11.40
2018-12-26T06:18:57.616Z,10.73
2018-12-26T06:21:25.252Z,10.77
2018-12-26T06:23:52.714Z,11.83
2018-12-26T06:26:20.310Z,11.67
2018-12-26T06:28:47.842Z,11.43
2018-12-26T06:31:15.328Z,11.73
2018-12-26T06:33:44.905Z,11.97
2018-12-26T06:36:14.036Z,12.67
2018-12-26T06:38:43.200Z,12.57
2018-12-26T06:41:10.641Z,13.13
2018-12-26T06:43:38.431Z,14.83
2018-12-26T06:46:05.899Z,13.17
2018-12-26T06:48:33.480Z,11.47
2018-12-26T06:51:01.154Z,13.40
2018-12-26T06:53:28.787Z,12.60
2018-12-26T06:55:56.174Z,14.37
2018-12-26T06:58:25.765Z,14.40
2018-12-26T07:00:53.040Z,15.73
2018-12-26T07:03:20.570Z,17.87
2018-12-26T07:05:48.108Z,19.33
2018-12-26T07:08:15.704Z,19.60
2018-12-26T07:10:43.224Z,18.17
2018-12-26T07:13:12.359Z,20.13
2018-12-26T07:15:40.072Z,20.10
2018-12-26T07:18:09.175Z,20.33
2018-12-26T07:20:36.649Z,18.67
2018-12-26T07:23:05.938Z,17.13
2018-12-26T07:25:33.180Z,18.10
2018-12-26T07:28:08.973Z,17.77
2018-12-26T07:30:32.462Z,16.63
2018-12-26T07:32:59.972Z,16.83
2018-12-26T07:35:27.512Z,16.13
2018-12-26T07:37:57.953Z,17.17
2018-12-26T07:40:27.111Z,19.03
2018-12-26T07:42:54.606Z,18.17
2018-12-26T07:45:21.954Z,17.80
2018-12-26T07:47:49.452Z,17.87
2018-12-26T07:50:17.130Z,19.37
2018-12-26T07:52:52.024Z,20.73
2018-12-26T07:55:21.223Z,19.10
2018-12-26T07:57:48.904Z,19.80
2018-12-26T08:00:16.385Z,19.37
2018-12-26T08:02:43.899Z,20.37
2018-12-26T08:05:11.454Z,21.87
2018-12-26T08:07:38.946Z,22.10
2018-12-26T08:10:09.464Z,22.97
2018-12-26T08:12:36.875Z,21.67
2018-12-26T08:15:10.873Z,23.20
2018-12-26T08:17:36.641Z,21.50
2018-12-26T08:20:05.259Z,22.17
2018-12-26T08:22:34.516Z,23.13
2018-12-26T08:25:01.970Z,24.57
2018-12-26T08:27:31.694Z,22.37
2018-12-26T08:30:01.607Z,23.20
2018-12-26T08:32:29.153Z,23.00
2018-12-26T08:34:58.365Z,22.83
2018-12-26T08:37:25.777Z,23.37
2018-12-26T08:39:53.268Z,23.93
2018-12-26T08:42:20.774Z,26.40
2018-12-26T08:44:51.165Z,25.57
2018-12-26T08:47:18.724Z,26.03
2018-12-26T08:49:46.581Z,23.50
2018-12-26T08:52:14.080Z,24.53
2018-12-26T08:54:41.829Z,22.53
2018-12-26T08:57:09.389Z,22.47
2018-12-26T08:59:36.959Z,22.80
2018-12-26T09:02:04.844Z,21.70
2018-12-26T09:04:32.367Z,22.97
2018-12-26T09:06:59.813Z,24.40
2018-12-26T09:09:29.349Z,24.77
2018-12-26T09:11:56.806Z,24.50
2018-12-26T09:14:25.807Z,23.27
2018-12-26T09:16:53.515Z,24.10
2018-12-26T09:19:20.997Z,25.83
2018-12-26T09:21:53.574Z,27.07
2018-12-26T09:24:21.138Z,26.10
2018-12-26T09:26:50.299Z,25.77
2018-12-26T09:29:17.760Z,27.33
2018-12-26T09:31:45.209Z,28.57
2018-12-26T09:34:12.642Z,27.47
2018-12-26T09:36:40.193Z,26.90
2018-12-26T09:39:13.122Z,25.80
2018-12-26T09:41:40.604Z,23.73
2018-12-26T09:44:10.646Z,25.27
2018-12-26T09:46:40.026Z,24.37
2018-12-26T09:49:07.483Z,26.27
2018-12-26T09:51:34.945Z,23.80
2018-12-26T09:54:02.502Z,23.27
2018-12-26T09:56:30.320Z,23.30
2018-12-26T09:58:57.960Z,22.80
2018-12-26T10:01:25.548Z,22.90
2018-12-26T10:03:53.252Z,23.47
2018-12-26T10:06:20.724Z,24.83
2018-12-26T10:08:49.844Z,24.83
2018-12-26T10:11:18.865Z,24.33
2018-12-26T10:13:46.336Z,23.50
2018-12-26T10:16:14.604Z,21.70
2018-12-26T10:18:42.028Z,23.40
2018-12-26T10:21:11.071Z,21.70
2018-12-26T10:23:38.545Z,23.50
2018-12-26T10:26:05.952Z,21.80
2018-12-26T10:28:33.407Z,22.77
2018-12-26T10:31:00.868Z,24.17
2018-12-26T10:33:29.621Z,22.73
2018-12-26T10:35:56.982Z,24.03
2018-12-26T10:38:25.885Z,27.30
2018-12-26T10:40:54.966Z,25.43
2018-12-26T10:43:25.698Z,26.33
2018-12-26T10:45:55.134Z,28.90
2018-12-26T10:48:24.714Z,27.83
2018-12-26T10:50:52.090Z,28.93
2018-12-26T10:53:20.641Z,28.73
2018-12-26T10:55:48.110Z,26.27
2018-12-26T10:58:15.612Z,25.50
2018-12-26T11:00:45.491Z,25.47
2018-12-26T11:03:13.071Z,24.63
2018-12-26T11:05:40.570Z,24.13
2018-12-26T11:08:08.156Z,26.80
2018-12-26T11:10:35.548Z,24.70
2018-12-26T11:13:03.029Z,23.60
2018-12-26T11:15:30.560Z,24.23
2018-12-26T11:17:58.182Z,24.73
2018-12-26T11:20:25.764Z,30.30
2018-12-26T11:22:53.277Z,30.77
2018-12-26T11:25:22.521Z,29.23
2018-12-26T11:27:50.050Z,27.07
2018-12-26T11:30:17.795Z,22.30
2018-12-26T11:32:46.837Z,21.40
2018-12-26T11:35:14.342Z,23.07
2018-12-26T11:37:41.756Z,22.17
2018-12-26T11:40:09.871Z,24.97
2018-12-26T11:42:37.298Z,23.07
2018-12-26T11:45:06.281Z,27.60
2018-12-26T11:47:33.725Z,25.60
2018-12-26T11:50:01.053Z,25.57
2018-12-26T11:52:28.537Z,24.20
2018-12-26T11:54:55.917Z,23.77
2018-12-26T11:57:23.484Z,23.60
2018-12-26T11:59:50.965Z,23.17
2018-12-26T12:02:20.746Z,22.33
2018-12-26T12:04:47.536Z,22.73
2018-12-26T12:07:14.972Z,21.60
2018-12-26T12:09:42.358Z,21.10
2018-12-26T12:12:09.833Z,22.10
2018-12-26T12:14:37.299Z,22.57
2018-12-26T12:17:07.812Z,21.03
2018-12-26T12:19:35.343Z,22.90
2018-12-26T12:22:03.081Z,22.33
2018-12-26T12:24:30.488Z,23.73
2018-12-26T12:26:57.855Z,20.47
2018-12-26T12:29:25.310Z,22.63
2018-12-26T12:31:52.702Z,20.77
2018-12-26T12:34:20.056Z,21.47
2018-12-26T12:36:47.603Z,20.63
2018-12-26T12:39:15.072Z,23.57
2018-12-26T12:41:43.126Z,22.87
2018-12-26T12:44:10.635Z,26.43
2018-12-26T12:46:38.067Z,26.97
2018-12-26T12:49:05.477Z,25.57
2018-12-26T12:51:32.908Z,26.37
2018-12-26T12:54:00.279Z,27.00
2018-12-26T12:56:28.025Z,26.67
2018-12-26T12:58:58.370Z,26.47
2018-12-26T13:01:25.829Z,26.77
2018-12-26T13:03:53.252Z,26.57
2018-12-26T13:06:20.793Z,26.83
2018-12-26T13:08:48.213Z,27.23
2018-12-26T13:11:15.882Z,27.60
2018-12-26T13:13:43.333Z,25.33
2018-12-26T13:16:10.748Z,26.20
2018-12-26T13:18:38.213Z,27.23
2018-12-26T13:21:06.214Z,26.43
2018-12-26T13:23:33.718Z,24.90
2018-12-26T13:26:01.252Z,26.37
2018-12-26T13:28:28.757Z,25.83
2018-12-26T13:31:04.892Z,26.20
2018-12-26T13:33:26.767Z,29.20
2018-12-26T13:35:54.320Z,26.83
2018-12-26T13:38:21.752Z,28.60
2018-12-26T13:40:49.168Z,27.80
2018-12-26T13:43:16.602Z,29.87
2018-12-26T13:45:43.937Z,28.97
2018-12-26T13:48:14.064Z,29.03
2018-12-26T13:50:45.177Z,27.80
2018-12-26T13:53:14.357Z,29.00
2018-12-26T13:55:42.299Z,29.07
2018-12-26T13:58:09.747Z,27.17
2018-12-26T14:00:37.081Z,27.83
2018-12-26T14:03:04.475Z,27.13
2018-12-26T14:05:31.871Z,30.77
2018-12-26T14:07:59.345Z,30.03
2018-12-26T14:10:26.774Z,31.67
2018-12-26T14:12:54.233Z,28.57
2018-12-26T14:15:21.625Z,28.70
2018-12-26T14:17:49.180Z,29.17
2018-12-26T14:20:18.180Z,31.67
2018-12-26T14:22:45.594Z,31.60
2018-12-26T14:25:13.002Z,31.43
2018-12-26T14:27:40.476Z,30.80
2018-12-26T14:30:11.247Z,29.37
2018-12-26T14:32:37.159Z,30.83
2018-12-26T14:35:05.000Z,31.90
2018-12-26T14:37:32.324Z,33.30
2018-12-26T14:39:59.710Z,32.00
2018-12-26T14:42:27.225Z,31.60
2018-12-26T14:44:54.630Z,32.27
2018-12-26T14:47:21.995Z,34.60
2018-12-26T14:49:49.551Z,33.83
2018-12-26T14:52:18.599Z,33.77
2018-12-26T14:54:46.085Z,31.23
2018-12-26T14:57:13.862Z,35.87
2018-12-26T14:59:41.279Z,35.17
2018-12-26T15:02:10.998Z,38.70
2018-12-26T15:04:38.116Z,36.40
2018-12-26T15:07:05.519Z,32.27
2018-12-26T15:09:32.862Z,32.77
2018-12-26T15:12:00.356Z,34.97
2018-12-26T15:14:27.853Z,34.00
2018-12-26T15:16:55.302Z,33.80
2018-12-26T15:19:22.793Z,37.53
2018-12-26T15:21:50.352Z,37.90
2018-12-26T15:24:17.682Z,37.83
2018-12-26T15:26:45.065Z,34.57
2018-12-26T15:29:12.460Z,36.93
2018-12-26T15:31:39.809Z,36.73
2018-12-26T15:34:08.318Z,36.83
2018-12-26T15:36:35.800Z,32.50
2018-12-26T15:39:06.097Z,33.33
2018-12-26T15:41:35.372Z,33.17
2018-12-26T15:44:02.507Z,32.83
2018-12-26T15:46:30.080Z,31.27
2018-12-26T15:48:57.585Z,32.07
2018-12-26T15:51:25.000Z,30.20
2018-12-26T15:53:52.388Z,28.40
2018-12-26T15:56:24.146Z,30.83
2018-12-26T15:58:53.088Z,30.03
2018-12-26T16:01:20.548Z,30.33
2018-12-26T16:03:48.210Z,29.80
2018-12-26T16:06:15.619Z,29.20
2018-12-26T16:08:43.104Z,28.03
2018-12-26T16:11:10.552Z,31.70
2018-12-26T16:13:38.016Z,29.33
2018-12-26T16:16:05.466Z,29.23
2018-12-26T16:18:32.951Z,29.57
2018-12-26T16:21:00.279Z,27.47
2018-12-26T16:23:27.639Z,26.63
2018-12-26T16:25:55.100Z,28.27
2018-12-26T16:28:22.562Z,28.33
2018-12-26T16:30:49.889Z,30.10
2018-12-26T16:33:17.514Z,31.87
2018-12-26T16:35:44.959Z,35.10
2018-12-26T16:38:12.325Z,34.83
2018-12-26T16:40:39.706Z,35.70
2018-12-26T16:43:07.114Z,33.53
2018-12-26T16:45:34.976Z,33.17
2018-12-26T16:48:02.418Z,35.37
2018-12-26T16:50:29.931Z,33.57
2018-12-26T16:52:57.377Z,31.80
2018-12-26T16:55:24.832Z,32.43
2018-12-26T16:57:52.370Z,31.30
2018-12-26T17:00:19.808Z,32.33
2018-12-26T17:02:47.260Z,29.33
2018-12-26T17:05:14.608Z,28.50
2018-12-26T17:07:42.083Z,26.90
2018-12-26T17:10:11.190Z,28.77
2018-12-26T17:12:38.720Z,27.47
2018-12-26T17:15:06.394Z,27.97
2018-12-26T17:17:33.926Z,27.33
2018-12-26T17:20:01.407Z,26.57
2018-12-26T17:22:30.369Z,24.07
2018-12-26T17:24:57.842Z,26.17
2018-12-26T17:27:25.578Z,26.20
2018-12-26T17:29:54.454Z,26.17
2018-12-26T17:32:22.092Z,31.97
2018-12-26T17:34:49.577Z,28.47
2018-12-26T17:37:16.975Z,29.73
2018-12-26T17:39:44.387Z,27.07
2018-12-26T17:42:11.720Z,27.33
2018-12-26T17:44:39.236Z,29.40
2018-12-26T17:47:06.755Z,30.43
2018-12-26T17:49:34.151Z,30.03
2018-12-26T17:52:01.538Z,27.40
2018-12-26T17:54:32.434Z,27.00
2018-12-26T17:56:59.870Z,29.47
2018-12-26T17:59:28.928Z,29.80
2018-12-26T18:01:57.966Z,32.37
2018-12-26T18:04:25.434Z,31.53
2018-12-26T18:06:52.967Z,37.40
2018-12-26T18:09:20.518Z,34.10
2018-12-26T18:11:51.484Z,32.80
2018-12-26T18:14:17.010Z,32.17
2018-12-26T18:16:44.448Z,33.33
2018-12-26T18:19:11.934Z,36.87
2018-12-26T18:21:40.974Z,37.33
2018-12-26T18:24:08.508Z,37.10
2018-12-26T18:26:35.928Z,34.70
2018-12-26T18:29:03.272Z,34.23
2018-12-26T18:31:30.726Z,34.27
2018-12-26T18:33:58.205Z,32.00
2018-12-26T18:36:25.539Z,32.60
2018-12-26T18:38:53.067Z,36.00
2018-12-26T18:41:21.025Z,39.63
2018-12-26T18:43:48.423Z,39.97
2018-12-26T18:46:15.999Z,39.50
2018-12-26T18:48:44.559Z,36.53
2018-12-26T18:51:12.039Z,38.17
2018-12-26T18:53:39.510Z,43.87
2018-12-26T18:56:06.839Z,42.33
2018-12-26T18:58:34.179Z,41.50
2018-12-26T19:01:03.292Z,40.33
2018-12-26T19:03:30.627Z,37.53
2018-12-26T19:05:59.091Z,37.47
2018-12-26T19:08:26.485Z,37.50
2018-12-26T19:10:53.919Z,36.53
2018-12-26T19:13:21.305Z,38.13
2018-12-26T19:15:48.779Z,37.57
2018-12-26T19:18:16.190Z,36.00
2018-12-26T19:20:43.580Z,38.00
2018-12-26T19:23:10.979Z,35.27
2018-12-26T19:25:38.962Z,36.00
2018-12-26T19:28:06.385Z,35.90
2018-12-26T19:30:33.820Z,39.40
2018-12-26T19:33:01.576Z,38.73
2018-12-26T19:35:29.076Z,37.83
2018-12-26T19:37:57.831Z,37.43
2018-12-26T19:40:25.238Z,34.97
2018-12-26T19:42:52.561Z,39.77
2018-12-26T19:45:20.033Z,37.20
2018-12-26T19:47:47.503Z,38.53
2018-12-26T19:50:14.841Z,38.73
2018-12-26T19:52:42.312Z,39.00
2018-12-26T19:55:09.819Z,40.03
2018-12-26T19:57:37.631Z,39.43
2018-12-26T20:00:07.947Z,42.03
2018-12-26T20:02:35.891Z,42.13
2018-12-26T20:05:03.490Z,41.90
2018-12-26T20:07:30.995Z,43.47
2018-12-26T20:09:59.735Z,42.57
2018-12-26T20:12:27.126Z,43.87
2018-12-26T20:14:57.548Z,42.70
2018-12-26T20:17:24.960Z,42.80
2018-12-26T20:19:52.385Z,38.17
2018-12-26T20:22:19.945Z,39.13
2018-12-26T20:24:47.311Z,43.53
2018-12-26T20:27:14.713Z,41.53
2018-12-26T20:29:42.259Z,43.97
2018-12-26T20:32:09.702Z,46.60
2018-12-26T20:34:37.152Z,46.17
2018-12-26T20:37:04.565Z,43.83
2018-12-26T20:39:31.973Z,47.03
2018-12-26T20:41:59.319Z,46.07
2018-12-26T20:44:26.773Z,51.30
2018-12-26T20:46:54.310Z,53.67
2018-12-26T20:49:21.790Z,56.80
2018-12-26T20:51:52.588Z,57.20
2018-12-26T20:54:20.081Z,54.47
2018-12-26T20:56:47.554Z,55.00
2018-12-26T20:59:15.054Z,52.23
2018-12-26T21:01:42.615Z,50.47
2018-12-26T21:04:11.594Z,48.00
2018-12-26T21:06:48.543Z,47.30
2018-12-26T21:09:16.112Z,48.53
2018-12-26T21:11:45.907Z,45.10
2018-12-26T21:15:16.072Z,44.00
2018-12-26T21:16:42.801Z,47.87
2018-12-26T21:19:12.095Z,46.30
2018-12-26T21:21:40.282Z,44.30
2018-12-26T21:24:16.420Z,47.20
2018-12-26T21:26:44.187Z,42.37
2018-12-26T21:29:18.119Z,41.07
2018-12-26T21:31:48.507Z,39.77
2018-12-26T21:34:19.747Z,40.17
2018-12-26T21:36:55.163Z,39.73
2018-12-26T21:39:18.244Z,36.90
2018-12-26T21:41:45.875Z,38.03
2018-12-26T21:47:03.150Z,37.60
2018-12-26T21:52:20.064Z,38.97
2018-12-26T21:54:47.701Z,40.13
2018-12-26T21:57:18.171Z,38.63
2018-12-26T22:02:23.231Z,34.57
2018-12-26T22:04:50.805Z,34.83
2018-12-26T22:07:18.331Z,34.87
2018-12-26T22:09:50.305Z,36.90
2018-12-26T22:12:17.807Z,37.00
2018-12-26T22:14:45.618Z,30.97
2018-12-26T22:17:13.072Z,31.33
2018-12-26T22:19:40.532Z,33.60
2018-12-26T22:22:08.165Z,32.63
2018-12-26T22:24:35.960Z,32.57
2018-12-26T22:27:03.507Z,31.53
2018-12-26T22:29:30.911Z,31.37
2018-12-26T22:31:58.424Z,32.60
2018-12-26T22:34:25.756Z,30.40
2018-12-26T22:36:53.233Z,31.60
2018-12-26T22:39:20.688Z,30.27
2018-12-26T22:41:49.694Z,32.20
2018-12-26T22:44:17.102Z,31.37
2018-12-26T22:46:47.526Z,29.47
2018-12-26T22:49:15.012Z,30.97
2018-12-26T22:51:42.652Z,30.43
2018-12-26T22:54:10.162Z,31.57
2018-12-26T22:56:38.202Z,31.87
2018-12-26T22:59:05.631Z,30.00
2018-12-26T23:01:33.186Z,29.33
2018-12-26T23:04:01.063Z,32.50
2018-12-26T23:06:28.552Z,31.73
2018-12-26T23:08:56.032Z,31.53
2018-12-26T23:11:23.458Z,31.90
2018-12-26T23:13:53.912Z,32.90
2018-12-26T23:16:21.408Z,32.53
2018-12-26T23:18:48.957Z,31.70
2018-12-26T23:21:21.024Z,32.10
2018-12-26T23:23:48.918Z,29.90
2018-12-26T23:26:16.349Z,30.40
2018-12-26T23:28:43.852Z,32.13
2018-12-26T23:31:11.734Z,32.70
2018-12-26T23:33:39.233Z,35.90
2018-12-26T23:36:06.792Z,35.70
2018-12-26T23:38:34.418Z,35.60
2018-12-26T23:41:01.864Z,36.53
2018-12-26T23:43:29.350Z,35.03
2018-12-26T23:45:56.914Z,34.63
2018-12-26T23:48:24.375Z,30.47
2018-12-26T23:50:53.623Z,30.33
2018-12-26T23:53:21.126Z,29.77
2018-12-26T23:55:48.682Z,28.90
2018-12-26T23:58:16.144Z,28.37
